Terminal Aerodrome Forecast
Issued by NWS Mobile, AL

Home | Current Version | Previous Version | Text Only | Print | Product List | Glossary On
Versions: 1 2 3 4 5 6 7 8 9 10 11 12 13 14 15 16 17 18 19 20 21 22 23 24 25 26 27 28 29 30 31 32 33 34 35 36 37 38 39
000
FTUS44 KMOB 271957 AAA
TAFMOB
TAF AMD
KMOB 271957Z 2720/2818 15025G40KT P6SM RA SCT030 BKN090 OVC110
      TEMPO 2720/2723 3SM TSRA BR BKN025CB
     FM280000 11012KT 5SM TSRA BKN025CB
     FM280900 07014G21KT P6SM TS OVC035CB
     FM281200 05012KT 5SM TSRA OVC019CB=

USA.gov is the U.S. government's official web portal to all federal, state and local government web resources and services.